Reservoir, Mississippi
Current Conditions -  °F | °C
As of 10:54 AM on Thursday 27 Nov 2014 (Local Time) from KJAN Reporting Station
Clear Clear  
Wind Chill: 44°   Ceiling: Unl
Heat Index: 48°   Visibility: 10mi
Dew Point: 28°   Wind: 9mph
Humidity: 46%   Direction: 310°NW
Pressure: 30.48"   Gusts: NA
Location:  32.2729°N, 89.9857°W
Report Text: KJAN 271654Z 31008KT 10SM CLR 09/M02 A3048 RMK AO2 SLP322 T00891022
Loading
Personal Weather Stations






























Interactive Weather Map New forecast layout! Learn more

10-Day Weather Forecast

Advertisements
Track Severe Weather on mobile